sensor_id;sensor_type;location;lat;lon;timestamp;temperature;humidity
5617;DHT22;2830;50.656;7.568;2022-09-03T00:01:57;11.10;99.90
5617;DHT22;2830;50.656;7.568;2022-09-03T00:04:36;11.20;99.90
5617;DHT22;2830;50.656;7.568;2022-09-03T00:07:14;11.30;99.90
5617;DHT22;2830;50.656;7.568;2022-09-03T00:09:46;11.20;99.90
5617;DHT22;2830;50.656;7.568;2022-09-03T00:12:21;11.20;99.90
5617;DHT22;2830;50.656;7.568;2022-09-03T00:15:02;11.00;99.90
5617;DHT22;2830;50.656;7.568;2022-09-03T00:17:44;10.90;99.90
5617;DHT22;2830;50.656;7.568;2022-09-03T00:20:49;10.90;1.00
5617;DHT22;2830;50.656;7.568;2022-09-03T00:23:22;11.10;99.90
5617;DHT22;2830;50.656;7.568;2022-09-03T00:28:29;11.10;99.90
5617;DHT22;2830;50.656;7.568;2022-09-03T00:31:17;11.00;99.90
5617;DHT22;2830;50.656;7.568;2022-09-03T00:33:47;10.90;99.90
5617;DHT22;2830;50.656;7.568;2022-09-03T00:36:18;10.90;99.90
5617;DHT22;2830;50.656;7.568;2022-09-03T00:38:46;10.80;99.90
5617;DHT22;2830;50.656;7.568;2022-09-03T00:50:03;11.00;99.90
5617;DHT22;2830;50.656;7.568;2022-09-03T00:55:44;11.00;99.90
5617;DHT22;2830;50.656;7.568;2022-09-03T00:58:41;11.20;99.90
5617;DHT22;2830;50.656;7.568;2022-09-03T01:01:17;11.10;99.90
5617;DHT22;2830;50.656;7.568;2022-09-03T01:04:01;11.20;28.00
5617;DHT22;2830;50.656;7.568;2022-09-03T01:09:24;11.10;99.90
5617;DHT22;2830;50.656;7.568;2022-09-03T01:15:39;11.00;99.90
5617;DHT22;2830;50.656;7.568;2022-09-03T01:20:37;10.90;1.00
5617;DHT22;2830;50.656;7.568;2022-09-03T01:23:43;10.80;99.90
5617;DHT22;2830;50.656;7.568;2022-09-03T01:36:57;11.10;1.00
5617;DHT22;2830;50.656;7.568;2022-09-03T01:39:37;11.10;99.90
5617;DHT22;2830;50.656;7.568;2022-09-03T01:42:31;11.10;99.90
5617;DHT22;2830;50.656;7.568;2022-09-03T01:53:39;10.80;99.90
5617;DHT22;2830;50.656;7.568;2022-09-03T02:02:04;10.90;99.90
5617;DHT22;2830;50.656;7.568;2022-09-03T02:04:33;10.90;99.90
5617;DHT22;2830;50.656;7.568;2022-09-03T02:07:00;11.00;99.90
5617;DHT22;2830;50.656;7.568;2022-09-03T02:09:28;11.10;99.90
5617;DHT22;2830;50.656;7.568;2022-09-03T02:12:13;11.00;99.90
5617;DHT22;2830;50.656;7.568;2022-09-03T02:14:41;11.00;99.90
5617;DHT22;2830;50.656;7.568;2022-09-03T02:17:09;10.90;99.90
5617;DHT22;2830;50.656;7.568;2022-09-03T02:19:37;10.90;99.90
5617;DHT22;2830;50.656;7.568;2022-09-03T02:22:05;11.00;1.00
5617;DHT22;2830;50.656;7.568;2022-09-03T02:24:32;11.10;99.90
5617;DHT22;2830;50.656;7.568;2022-09-03T02:26:58;11.00;77.70
5617;DHT22;2830;50.656;7.568;2022-09-03T02:29:25;11.00;99.90
5617;DHT22;2830;50.656;7.568;2022-09-03T02:31:53;11.00;99.90
5617;DHT22;2830;50.656;7.568;2022-09-03T02:34:19;11.00;99.90
5617;DHT22;2830;50.656;7.568;2022-09-03T02:36:46;11.00;99.90
5617;DHT22;2830;50.656;7.568;2022-09-03T02:39:14;10.80;99.90
5617;DHT22;2830;50.656;7.568;2022-09-03T02:41:41;10.90;99.90
5617;DHT22;2830;50.656;7.568;2022-09-03T02:44:17;10.90;1.00
5617;DHT22;2830;50.656;7.568;2022-09-03T02:46:57;11.00;1.00
5617;DHT22;2830;50.656;7.568;2022-09-03T02:49:24;11.10;99.90
5617;DHT22;2830;50.656;7.568;2022-09-03T02:51:50;11.10;99.90
5617;DHT22;2830;50.656;7.568;2022-09-03T02:54:17;11.10;99.90
5617;DHT22;2830;50.656;7.568;2022-09-03T02:56:46;11.20;99.90
5617;DHT22;2830;50.656;7.568;2022-09-03T02:59:15;11.20;99.90
5617;DHT22;2830;50.656;7.568;2022-09-03T03:01:45;11.30;99.90
5617;DHT22;2830;50.656;7.568;2022-09-03T03:04:12;11.40;99.90
5617;DHT22;2830;50.656;7.568;2022-09-03T03:06:39;11.30;99.90
5617;DHT22;2830;50.656;7.568;2022-09-03T03:09:05;11.20;99.90
5617;DHT22;2830;50.656;7.568;2022-09-03T03:11:34;10.90;99.90
5617;DHT22;2830;50.656;7.568;2022-09-03T03:14:02;11.10;1.00
5617;DHT22;2830;50.656;7.568;2022-09-03T03:16:29;11.00;99.90
5617;DHT22;2830;50.656;7.568;2022-09-03T03:18:56;10.90;1.00
5617;DHT22;2830;50.656;7.568;2022-09-03T03:21:22;10.90;1.00
5617;DHT22;2830;50.656;7.568;2022-09-03T03:23:49;11.00;1.00
5617;DHT22;2830;50.656;7.568;2022-09-03T03:26:18;11.00;99.90
5617;DHT22;2830;50.656;7.568;2022-09-03T03:28:46;11.10;99.90
5617;DHT22;2830;50.656;7.568;2022-09-03T03:31:17;11.20;99.90
5617;DHT22;2830;50.656;7.568;2022-09-03T03:33:44;11.10;99.90
5617;DHT22;2830;50.656;7.568;2022-09-03T03:36:15;11.20;99.90
5617;DHT22;2830;50.656;7.568;2022-09-03T03:38:43;11.30;99.90
5617;DHT22;2830;50.656;7.568;2022-09-03T03:41:13;11.30;99.90
5617;DHT22;2830;50.656;7.568;2022-09-03T03:43:41;11.40;99.90
5617;DHT22;2830;50.656;7.568;2022-09-03T03:46:08;11.50;99.90
5617;DHT22;2830;50.656;7.568;2022-09-03T03:48:36;11.70;99.90
5617;DHT22;2830;50.656;7.568;2022-09-03T03:51:05;11.60;4.10
5617;DHT22;2830;50.656;7.568;2022-09-03T03:53:34;11.50;99.90
5617;DHT22;2830;50.656;7.568;2022-09-03T03:56:04;11.40;99.90
5617;DHT22;2830;50.656;7.568;2022-09-03T03:58:32;11.20;99.90
5617;DHT22;2830;50.656;7.568;2022-09-03T04:01:07;11.30;1.00
5617;DHT22;2830;50.656;7.568;2022-09-03T04:03:35;11.30;99.90
5617;DHT22;2830;50.656;7.568;2022-09-03T04:06:02;11.50;1.00
5617;DHT22;2830;50.656;7.568;2022-09-03T04:08:33;11.70;99.90
5617;DHT22;2830;50.656;7.568;2022-09-03T04:11:02;11.70;99.90
5617;DHT22;2830;50.656;7.568;2022-09-03T04:13:40;11.70;99.90
5617;DHT22;2830;50.656;7.568;2022-09-03T04:16:10;11.70;99.90
5617;DHT22;2830;50.656;7.568;2022-09-03T04:18:37;11.60;99.90
5617;DHT22;2830;50.656;7.568;2022-09-03T04:21:13;11.50;99.90
5617;DHT22;2830;50.656;7.568;2022-09-03T04:23:42;11.50;99.90
5617;DHT22;2830;50.656;7.568;2022-09-03T04:26:11;11.40;99.90
5617;DHT22;2830;50.656;7.568;2022-09-03T04:28:38;11.50;1.00
5617;DHT22;2830;50.656;7.568;2022-09-03T04:31:07;11.50;99.90
5617;DHT22;2830;50.656;7.568;2022-09-03T04:33:35;11.70;1.00
5617;DHT22;2830;50.656;7.568;2022-09-03T04:36:15;11.80;99.90
5617;DHT22;2830;50.656;7.568;2022-09-03T04:38:45;11.80;99.90
5617;DHT22;2830;50.656;7.568;2022-09-03T04:41:15;12.00;99.90
5617;DHT22;2830;50.656;7.568;2022-09-03T04:43:43;12.00;99.90
5617;DHT22;2830;50.656;7.568;2022-09-03T04:46:15;11.90;99.90
5617;DHT22;2830;50.656;7.568;2022-09-03T04:48:47;11.90;99.90
5617;DHT22;2830;50.656;7.568;2022-09-03T04:51:15;12.00;99.90
5617;DHT22;2830;50.656;7.568;2022-09-03T04:53:44;12.00;99.90
5617;DHT22;2830;50.656;7.568;2022-09-03T04:56:13;12.10;99.90
5617;DHT22;2830;50.656;7.568;2022-09-03T04:58:41;12.10;69.80
5617;DHT22;2830;50.656;7.568;2022-09-03T05:01:12;12.10;99.90
5617;DHT22;2830;50.656;7.568;2022-09-03T05:03:41;12.10;99.90
5617;DHT22;2830;50.656;7.568;2022-09-03T05:06:08;12.20;99.90
5617;DHT22;2830;50.656;7.568;2022-09-03T05:08:35;12.30;99.90
5617;DHT22;2830;50.656;7.568;2022-09-03T05:11:03;12.30;99.90
5617;DHT22;2830;50.656;7.568;2022-09-03T05:13:31;12.50;99.90
5617;DHT22;2830;50.656;7.568;2022-09-03T05:16:00;12.50;55.00
5617;DHT22;2830;50.656;7.568;2022-09-03T05:18:27;12.70;99.90
5617;DHT22;2830;50.656;7.568;2022-09-03T05:21:05;12.90;43.10
5617;DHT22;2830;50.656;7.568;2022-09-03T05:23:37;12.80;72.00
5617;DHT22;2830;50.656;7.568;2022-09-03T05:26:07;12.90;99.90
5617;DHT22;2830;50.656;7.568;2022-09-03T05:28:39;12.80;1.00
5617;DHT22;2830;50.656;7.568;2022-09-03T05:33:40;12.90;1.00
5617;DHT22;2830;50.656;7.568;2022-09-03T05:36:13;12.90;99.90
5617;DHT22;2830;50.656;7.568;2022-09-03T05:38:42;13.00;99.90
5617;DHT22;2830;50.656;7.568;2022-09-03T05:41:10;13.10;51.90
5617;DHT22;2830;50.656;7.568;2022-09-03T05:43:38;13.20;1.00
5617;DHT22;2830;50.656;7.568;2022-09-03T05:48:37;13.30;1.00
5617;DHT22;2830;50.656;7.568;2022-09-03T05:51:10;13.30;1.00
5617;DHT22;2830;50.656;7.568;2022-09-03T05:53:38;13.30;2.20
5617;DHT22;2830;50.656;7.568;2022-09-03T05:56:25;13.50;1.00
5617;DHT22;2830;50.656;7.568;2022-09-03T05:58:55;13.60;1.00
5617;DHT22;2830;50.656;7.568;2022-09-03T06:04:08;13.80;1.00
5617;DHT22;2830;50.656;7.568;2022-09-03T06:06:38;13.80;1.00
5617;DHT22;2830;50.656;7.568;2022-09-03T06:09:13;13.90;1.00
5617;DHT22;2830;50.656;7.568;2022-09-03T06:11:41;14.00;99.90
5617;DHT22;2830;50.656;7.568;2022-09-03T06:14:11;14.10;1.00
5617;DHT22;2830;50.656;7.568;2022-09-03T06:16:44;14.10;1.00
5617;DHT22;2830;50.656;7.568;2022-09-03T06:19:11;14.10;1.00
5617;DHT22;2830;50.656;7.568;2022-09-03T06:21:41;14.30;1.00
5617;DHT22;2830;50.656;7.568;2022-09-03T06:24:14;14.60;1.00
5617;DHT22;2830;50.656;7.568;2022-09-03T06:26:41;14.70;21.10
5617;DHT22;2830;50.656;7.568;2022-09-03T06:29:08;14.90;99.90
5617;DHT22;2830;50.656;7.568;2022-09-03T06:31:36;15.00;1.00
5617;DHT22;2830;50.656;7.568;2022-09-03T06:34:03;15.20;99.90
5617;DHT22;2830;50.656;7.568;2022-09-03T06:36:30;15.50;1.00
5617;DHT22;2830;50.656;7.568;2022-09-03T06:38:57;15.70;99.90
5617;DHT22;2830;50.656;7.568;2022-09-03T06:41:26;16.00;99.90
5617;DHT22;2830;50.656;7.568;2022-09-03T06:44:00;16.40;99.90
5617;DHT22;2830;50.656;7.568;2022-09-03T06:46:30;16.70;99.90
5617;DHT22;2830;50.656;7.568;2022-09-03T06:48:57;16.80;99.90
5617;DHT22;2830;50.656;7.568;2022-09-03T06:51:25;16.90;99.90
5617;DHT22;2830;50.656;7.568;2022-09-03T06:53:57;17.10;99.90
5617;DHT22;2830;50.656;7.568;2022-09-03T06:56:25;17.30;99.90
5617;DHT22;2830;50.656;7.568;2022-09-03T06:58:54;17.40;99.90
5617;DHT22;2830;50.656;7.568;2022-09-03T07:01:29;17.50;99.90
5617;DHT22;2830;50.656;7.568;2022-09-03T07:03:59;17.60;99.90
5617;DHT22;2830;50.656;7.568;2022-09-03T07:06:32;17.50;99.90
5617;DHT22;2830;50.656;7.568;2022-09-03T07:08:59;17.70;99.90
5617;DHT22;2830;50.656;7.568;2022-09-03T07:11:28;17.70;99.90
5617;DHT22;2830;50.656;7.568;2022-09-03T07:13:57;17.90;99.90
5617;DHT22;2830;50.656;7.568;2022-09-03T07:16:26;18.10;99.90
5617;DHT22;2830;50.656;7.568;2022-09-03T07:18:54;18.10;99.90
5617;DHT22;2830;50.656;7.568;2022-09-03T07:21:23;18.30;99.90
5617;DHT22;2830;50.656;7.568;2022-09-03T07:23:52;18.30;99.90
5617;DHT22;2830;50.656;7.568;2022-09-03T07:26:25;18.40;99.90
5617;DHT22;2830;50.656;7.568;2022-09-03T07:28:52;18.40;99.90
5617;DHT22;2830;50.656;7.568;2022-09-03T07:31:25;18.40;97.00
5617;DHT22;2830;50.656;7.568;2022-09-03T07:36:23;18.40;94.40
5617;DHT22;2830;50.656;7.568;2022-09-03T07:38:54;18.50;93.60
5617;DHT22;2830;50.656;7.568;2022-09-03T07:41:22;18.40;88.90
5617;DHT22;2830;50.656;7.568;2022-09-03T07:43:54;18.40;95.40
5617;DHT22;2830;50.656;7.568;2022-09-03T07:46:24;18.30;91.20
5617;DHT22;2830;50.656;7.568;2022-09-03T07:48:54;18.30;93.80
5617;DHT22;2830;50.656;7.568;2022-09-03T07:51:26;18.30;94.50
5617;DHT22;2830;50.656;7.568;2022-09-03T07:53:59;18.30;99.90
5617;DHT22;2830;50.656;7.568;2022-09-03T07:56:26;18.40;99.40
5617;DHT22;2830;50.656;7.568;2022-09-03T07:58:53;18.40;97.80
5617;DHT22;2830;50.656;7.568;2022-09-03T08:01:24;18.30;96.70
5617;DHT22;2830;50.656;7.568;2022-09-03T08:03:52;18.20;99.90
5617;DHT22;2830;50.656;7.568;2022-09-03T08:06:22;18.00;99.90
5617;DHT22;2830;50.656;7.568;2022-09-03T08:08:54;17.70;99.90
5617;DHT22;2830;50.656;7.568;2022-09-03T08:11:29;17.60;99.90
5617;DHT22;2830;50.656;7.568;2022-09-03T08:14:01;17.50;99.90
5617;DHT22;2830;50.656;7.568;2022-09-03T08:16:30;17.60;99.90
5617;DHT22;2830;50.656;7.568;2022-09-03T08:18:59;17.30;99.90
5617;DHT22;2830;50.656;7.568;2022-09-03T08:21:26;17.40;99.90
5617;DHT22;2830;50.656;7.568;2022-09-03T08:23:55;17.30;1.00
5617;DHT22;2830;50.656;7.568;2022-09-03T08:26:29;17.30;47.30
5617;DHT22;2830;50.656;7.568;2022-09-03T08:28:57;17.20;99.90
5617;DHT22;2830;50.656;7.568;2022-09-03T08:31:25;17.10;99.90
5617;DHT22;2830;50.656;7.568;2022-09-03T08:33:55;17.10;99.90
5617;DHT22;2830;50.656;7.568;2022-09-03T08:36:25;17.20;99.90
5617;DHT22;2830;50.656;7.568;2022-09-03T08:38:53;17.40;1.00
5617;DHT22;2830;50.656;7.568;2022-09-03T08:41:55;17.50;1.00
5617;DHT22;2830;50.656;7.568;2022-09-03T08:44:46;17.70;99.90
5617;DHT22;2830;50.656;7.568;2022-09-03T08:52:41;18.20;1.00
5617;DHT22;2830;50.656;7.568;2022-09-03T08:55:35;18.50;1.00
5617;DHT22;2830;50.656;7.568;2022-09-03T08:58:12;19.20;1.00
5617;DHT22;2830;50.656;7.568;2022-09-03T09:06:13;20.80;99.90
5617;DHT22;2830;50.656;7.568;2022-09-03T09:09:02;21.50;99.90
5617;DHT22;2830;50.656;7.568;2022-09-03T09:11:39;21.50;99.90
5617;DHT22;2830;50.656;7.568;2022-09-03T09:14:18;21.60;99.90
5617;DHT22;2830;50.656;7.568;2022-09-03T09:19:46;21.30;99.90
5617;DHT22;2830;50.656;7.568;2022-09-03T09:22:35;21.30;99.90
5617;DHT22;2830;50.656;7.568;2022-09-03T09:25:10;21.30;99.90
5617;DHT22;2830;50.656;7.568;2022-09-03T09:27:51;21.30;99.90
5617;DHT22;2830;50.656;7.568;2022-09-03T09:30:19;21.40;86.00
5617;DHT22;2830;50.656;7.568;2022-09-03T09:32:46;22.20;66.50
5617;DHT22;2830;50.656;7.568;2022-09-03T09:35:18;22.70;45.20
5617;DHT22;2830;50.656;7.568;2022-09-03T09:37:49;22.40;26.00
5617;DHT22;2830;50.656;7.568;2022-09-03T09:40:29;21.90;26.40
5617;DHT22;2830;50.656;7.568;2022-09-03T09:43:09;22.20;26.40
5617;DHT22;2830;50.656;7.568;2022-09-03T09:45:42;22.50;25.10
5617;DHT22;2830;50.656;7.568;2022-09-03T09:48:17;23.20;22.30
5617;DHT22;2830;50.656;7.568;2022-09-03T09:50:45;24.00;16.70
5617;DHT22;2830;50.656;7.568;2022-09-03T09:53:12;23.50;10.40
5617;DHT22;2830;50.656;7.568;2022-09-03T09:55:55;23.20;11.40
5617;DHT22;2830;50.656;7.568;2022-09-03T09:58:26;23.30;13.50
5617;DHT22;2830;50.656;7.568;2022-09-03T10:01:00;22.80;12.00
5617;DHT22;2830;50.656;7.568;2022-09-03T10:03:32;22.70;11.40
5617;DHT22;2830;50.656;7.568;2022-09-03T10:06:04;22.80;12.20
5617;DHT22;2830;50.656;7.568;2022-09-03T10:09:03;22.60;13.10
5617;DHT22;2830;50.656;7.568;2022-09-03T10:11:32;22.80;11.90
5617;DHT22;2830;50.656;7.568;2022-09-03T10:14:01;22.80;12.10
5617;DHT22;2830;50.656;7.568;2022-09-03T10:16:34;23.40;11.10
5617;DHT22;2830;50.656;7.568;2022-09-03T10:19:28;23.40;8.80
5617;DHT22;2830;50.656;7.568;2022-09-03T10:22:11;23.10;11.00
5617;DHT22;2830;50.656;7.568;2022-09-03T10:24:55;23.10;10.70
5617;DHT22;2830;50.656;7.568;2022-09-03T10:27:23;23.20;11.00
5617;DHT22;2830;50.656;7.568;2022-09-03T10:29:51;23.30;10.20
5617;DHT22;2830;50.656;7.568;2022-09-03T10:35:12;23.30;11.50
5617;DHT22;2830;50.656;7.568;2022-09-03T10:46:32;22.20;41.50
5617;DHT22;2830;50.656;7.568;2022-09-03T10:52:08;21.90;50.70
5617;DHT22;2830;50.656;7.568;2022-09-03T10:54:48;21.70;41.90
5617;DHT22;2830;50.656;7.568;2022-09-03T10:57:48;21.50;48.60
5617;DHT22;2830;50.656;7.568;2022-09-03T11:00:17;21.30;40.20
5617;DHT22;2830;50.656;7.568;2022-09-03T11:05:23;21.20;52.60
5617;DHT22;2830;50.656;7.568;2022-09-03T11:08:11;21.50;52.60
5617;DHT22;2830;50.656;7.568;2022-09-03T11:10:51;21.80;54.60
5617;DHT22;2830;50.656;7.568;2022-09-03T11:13:29;22.70;46.50
5617;DHT22;2830;50.656;7.568;2022-09-03T11:16:07;22.80;36.70
5617;DHT22;2830;50.656;7.568;2022-09-03T11:18:50;22.90;34.10
5617;DHT22;2830;50.656;7.568;2022-09-03T11:21:23;23.20;31.50
5617;DHT22;2830;50.656;7.568;2022-09-03T11:24:06;23.20;31.00
5617;DHT22;2830;50.656;7.568;2022-09-03T11:26:35;23.90;26.90
5617;DHT22;2830;50.656;7.568;2022-09-03T11:29:22;24.60;23.90
5617;DHT22;2830;50.656;7.568;2022-09-03T11:32:04;25.40;16.30
5617;DHT22;2830;50.656;7.568;2022-09-03T11:34:46;24.90;15.40
5617;DHT22;2830;50.656;7.568;2022-09-03T11:37:22;24.80;14.40
5617;DHT22;2830;50.656;7.568;2022-09-03T11:42:40;24.60;14.40
5617;DHT22;2830;50.656;7.568;2022-09-03T11:47:49;24.40;15.00
5617;DHT22;2830;50.656;7.568;2022-09-03T11:52:54;24.30;13.60
5617;DHT22;2830;50.656;7.568;2022-09-03T11:58:25;27.00;15.20
5617;DHT22;2830;50.656;7.568;2022-09-03T12:00:52;27.90;9.00
5617;DHT22;2830;50.656;7.568;2022-09-03T12:03:26;28.90;6.70
5617;DHT22;2830;50.656;7.568;2022-09-03T12:14:06;25.20;1.00
5617;DHT22;2830;50.656;7.568;2022-09-03T12:16:54;24.70;1.70
5617;DHT22;2830;50.656;7.568;2022-09-03T12:22:03;25.80;7.00
5617;DHT22;2830;50.656;7.568;2022-09-03T12:24:31;27.40;3.80
5617;DHT22;2830;50.656;7.568;2022-09-03T12:27:03;27.70;1.20
5617;DHT22;2830;50.656;7.568;2022-09-03T12:29:31;27.50;1.00
5617;DHT22;2830;50.656;7.568;2022-09-03T12:32:06;27.70;1.40
5617;DHT22;2830;50.656;7.568;2022-09-03T12:34:33;28.00;1.00
5617;DHT22;2830;50.656;7.568;2022-09-03T12:37:00;28.40;1.00
5617;DHT22;2830;50.656;7.568;2022-09-03T12:39:28;28.10;1.00
5617;DHT22;2830;50.656;7.568;2022-09-03T12:42:24;28.50;1.00
5617;DHT22;2830;50.656;7.568;2022-09-03T12:44:51;28.80;1.00
5617;DHT22;2830;50.656;7.568;2022-09-03T12:47:21;28.40;1.00
5617;DHT22;2830;50.656;7.568;2022-09-03T12:50:16;28.50;1.00
5617;DHT22;2830;50.656;7.568;2022-09-03T12:55:35;29.30;1.00
5617;DHT22;2830;50.656;7.568;2022-09-03T13:01:04;29.70;1.00
5617;DHT22;2830;50.656;7.568;2022-09-03T13:03:41;30.10;1.00
5617;DHT22;2830;50.656;7.568;2022-09-03T13:06:13;29.70;1.00
5617;DHT22;2830;50.656;7.568;2022-09-03T13:08:50;29.90;1.00
5617;DHT22;2830;50.656;7.568;2022-09-03T13:11:20;29.50;1.00
5617;DHT22;2830;50.656;7.568;2022-09-03T13:14:08;29.80;1.00
5617;DHT22;2830;50.656;7.568;2022-09-03T13:30:20;26.50;1.00
5617;DHT22;2830;50.656;7.568;2022-09-03T13:33:07;26.50;1.00
5617;DHT22;2830;50.656;7.568;2022-09-03T13:35:50;26.30;1.00
5617;DHT22;2830;50.656;7.568;2022-09-03T13:38:31;26.20;1.00
5617;DHT22;2830;50.656;7.568;2022-09-03T13:46:42;25.90;1.00
5617;DHT22;2830;50.656;7.568;2022-09-03T13:52:27;25.60;1.00
5617;DHT22;2830;50.656;7.568;2022-09-03T13:55:02;25.70;1.00
5617;DHT22;2830;50.656;7.568;2022-09-03T13:57:50;25.80;1.00
5617;DHT22;2830;50.656;7.568;2022-09-03T14:00:42;25.60;1.00
5617;DHT22;2830;50.656;7.568;2022-09-03T14:03:31;25.50;1.00
5617;DHT22;2830;50.656;7.568;2022-09-03T14:06:17;25.40;1.00
5617;DHT22;2830;50.656;7.568;2022-09-03T14:08:59;25.00;1.00
5617;DHT22;2830;50.656;7.568;2022-09-03T14:11:40;25.00;1.00
5617;DHT22;2830;50.656;7.568;2022-09-03T14:17:18;25.20;1.00
5617;DHT22;2830;50.656;7.568;2022-09-03T14:20:03;25.10;1.00
5617;DHT22;2830;50.656;7.568;2022-09-03T14:25:37;25.00;1.00
5617;DHT22;2830;50.656;7.568;2022-09-03T14:28:32;24.90;1.00
5617;DHT22;2830;50.656;7.568;2022-09-03T14:36:38;24.70;1.00
5617;DHT22;2830;50.656;7.568;2022-09-03T14:41:54;24.60;1.00
5617;DHT22;2830;50.656;7.568;2022-09-03T14:44:54;24.50;2.20
5617;DHT22;2830;50.656;7.568;2022-09-03T14:53:20;24.10;15.80
5617;DHT22;2830;50.656;7.568;2022-09-03T14:56:24;24.10;5.10
5617;DHT22;2830;50.656;7.568;2022-09-03T15:01:34;24.40;6.50
5617;DHT22;2830;50.656;7.568;2022-09-03T15:04:30;24.40;4.70
5617;DHT22;2830;50.656;7.568;2022-09-03T15:07:33;24.50;5.20
5617;DHT22;2830;50.656;7.568;2022-09-03T15:15:51;24.30;6.50
5617;DHT22;2830;50.656;7.568;2022-09-03T15:18:48;24.30;5.60
5617;DHT22;2830;50.656;7.568;2022-09-03T15:21:54;24.40;5.10
5617;DHT22;2830;50.656;7.568;2022-09-03T15:24:47;24.30;5.10
5617;DHT22;2830;50.656;7.568;2022-09-03T15:30:21;23.90;6.60
5617;DHT22;2830;50.656;7.568;2022-09-03T15:35:33;23.70;7.70
5617;DHT22;2830;50.656;7.568;2022-09-03T15:53:30;22.90;23.30
5617;DHT22;2830;50.656;7.568;2022-09-03T15:56:21;22.80;27.00
5617;DHT22;2830;50.656;7.568;2022-09-03T16:02:15;22.60;39.50
5617;DHT22;2830;50.656;7.568;2022-09-03T16:11:14;22.60;54.90
5617;DHT22;2830;50.656;7.568;2022-09-03T16:16:46;22.60;66.70
5617;DHT22;2830;50.656;7.568;2022-09-03T16:22:21;22.10;99.90
5617;DHT22;2830;50.656;7.568;2022-09-03T16:24:59;21.40;1.00
5617;DHT22;2830;50.656;7.568;2022-09-03T16:28:16;21.00;99.90
5617;DHT22;2830;50.656;7.568;2022-09-03T16:30:49;20.80;1.00
5617;DHT22;2830;50.656;7.568;2022-09-03T16:38:43;20.20;1.00
5617;DHT22;2830;50.656;7.568;2022-09-03T16:41:28;20.10;1.00
5617;DHT22;2830;50.656;7.568;2022-09-03T16:44:04;19.90;99.90
5617;DHT22;2830;50.656;7.568;2022-09-03T16:46:51;19.70;99.90
5617;DHT22;2830;50.656;7.568;2022-09-03T16:52:40;19.30;99.90
5617;DHT22;2830;50.656;7.568;2022-09-03T17:01:17;18.50;99.90
5617;DHT22;2830;50.656;7.568;2022-09-03T17:06:29;17.80;1.00
5617;DHT22;2830;50.656;7.568;2022-09-03T17:15:29;17.60;1.00
5617;DHT22;2830;50.656;7.568;2022-09-03T17:20:38;17.60;1.00
5617;DHT22;2830;50.656;7.568;2022-09-03T17:26:10;17.60;1.00
5617;DHT22;2830;50.656;7.568;2022-09-03T17:31:41;17.60;1.00
5617;DHT22;2830;50.656;7.568;2022-09-03T17:34:29;17.60;1.00
5617;DHT22;2830;50.656;7.568;2022-09-03T17:37:15;17.60;1.00
5617;DHT22;2830;50.656;7.568;2022-09-03T17:42:47;17.60;1.00
5617;DHT22;2830;50.656;7.568;2022-09-03T17:45:36;17.60;1.00
5617;DHT22;2830;50.656;7.568;2022-09-03T17:48:19;17.80;1.00
5617;DHT22;2830;50.656;7.568;2022-09-03T17:51:40;17.80;1.00
5617;DHT22;2830;50.656;7.568;2022-09-03T18:00:20;17.60;1.00
5617;DHT22;2830;50.656;7.568;2022-09-03T18:09:05;17.30;1.00
5617;DHT22;2830;50.656;7.568;2022-09-03T18:11:46;17.20;1.00
5617;DHT22;2830;50.656;7.568;2022-09-03T18:14:21;17.20;1.00
5617;DHT22;2830;50.656;7.568;2022-09-03T18:17:18;17.20;1.00
5617;DHT22;2830;50.656;7.568;2022-09-03T18:20:04;17.20;1.00
5617;DHT22;2830;50.656;7.568;2022-09-03T18:23:21;17.00;1.00
5617;DHT22;2830;50.656;7.568;2022-09-03T18:26:21;17.00;1.00
5617;DHT22;2830;50.656;7.568;2022-09-03T18:29:42;16.90;1.00
5617;DHT22;2830;50.656;7.568;2022-09-03T18:32:29;16.80;1.00
5617;DHT22;2830;50.656;7.568;2022-09-03T18:35:14;16.80;1.00
5617;DHT22;2830;50.656;7.568;2022-09-03T18:38:03;16.70;1.00
5617;DHT22;2830;50.656;7.568;2022-09-03T18:41:30;16.60;1.00
5617;DHT22;2830;50.656;7.568;2022-09-03T18:51:30;16.60;1.00
5617;DHT22;2830;50.656;7.568;2022-09-03T18:58:26;16.50;1.00
5617;DHT22;2830;50.656;7.568;2022-09-03T19:01:44;16.50;1.00
5617;DHT22;2830;50.656;7.568;2022-09-03T19:04:50;16.40;1.00
5617;DHT22;2830;50.656;7.568;2022-09-03T19:08:01;16.40;1.00
5617;DHT22;2830;50.656;7.568;2022-09-03T19:11:09;16.40;1.00
5617;DHT22;2830;50.656;7.568;2022-09-03T19:14:15;16.20;1.00
5617;DHT22;2830;50.656;7.568;2022-09-03T19:17:05;16.30;1.00
5617;DHT22;2830;50.656;7.568;2022-09-03T19:20:08;16.20;1.00
5617;DHT22;2830;50.656;7.568;2022-09-03T19:22:57;16.20;1.00
5617;DHT22;2830;50.656;7.568;2022-09-03T19:25:45;16.10;1.00
5617;DHT22;2830;50.656;7.568;2022-09-03T19:28:32;16.10;1.00
5617;DHT22;2830;50.656;7.568;2022-09-03T19:47:01;15.70;1.00
5617;DHT22;2830;50.656;7.568;2022-09-03T19:52:57;15.70;1.00
5617;DHT22;2830;50.656;7.568;2022-09-03T19:55:51;15.60;1.00
5617;DHT22;2830;50.656;7.568;2022-09-03T19:58:40;15.60;1.00
5617;DHT22;2830;50.656;7.568;2022-09-03T20:01:33;15.50;1.00
5617;DHT22;2830;50.656;7.568;2022-09-03T20:04:30;15.40;1.00
5617;DHT22;2830;50.656;7.568;2022-09-03T20:07:17;15.40;1.00
5617;DHT22;2830;50.656;7.568;2022-09-03T20:10:07;15.40;1.00
5617;DHT22;2830;50.656;7.568;2022-09-03T20:13:11;15.30;1.00
5617;DHT22;2830;50.656;7.568;2022-09-03T20:31:51;15.00;1.00
5617;DHT22;2830;50.656;7.568;2022-09-03T20:37:37;15.00;1.00
5617;DHT22;2830;50.656;7.568;2022-09-03T20:40:44;14.90;1.00
5617;DHT22;2830;50.656;7.568;2022-09-03T20:46:14;14.90;1.00
5617;DHT22;2830;50.656;7.568;2022-09-03T20:52:00;14.80;1.00
5617;DHT22;2830;50.656;7.568;2022-09-03T20:58:11;14.80;1.00
5617;DHT22;2830;50.656;7.568;2022-09-03T21:00:47;14.80;1.00
5617;DHT22;2830;50.656;7.568;2022-09-03T21:03:21;14.70;1.00
5617;DHT22;2830;50.656;7.568;2022-09-03T21:06:19;14.70;1.00
5617;DHT22;2830;50.656;7.568;2022-09-03T21:09:23;14.70;1.00
5617;DHT22;2830;50.656;7.568;2022-09-03T21:12:09;14.60;1.00
5617;DHT22;2830;50.656;7.568;2022-09-03T21:15:00;14.60;1.00
5617;DHT22;2830;50.656;7.568;2022-09-03T21:17:48;14.50;1.00
5617;DHT22;2830;50.656;7.568;2022-09-03T21:23:28;14.60;1.00
5617;DHT22;2830;50.656;7.568;2022-09-03T21:26:09;14.60;1.00
5617;DHT22;2830;50.656;7.568;2022-09-03T21:31:36;14.60;1.00
5617;DHT22;2830;50.656;7.568;2022-09-03T21:34:13;14.60;1.00
5617;DHT22;2830;50.656;7.568;2022-09-03T21:36:42;14.60;1.00
5617;DHT22;2830;50.656;7.568;2022-09-03T21:39:29;14.70;1.00
5617;DHT22;2830;50.656;7.568;2022-09-03T21:45:03;14.60;1.00
5617;DHT22;2830;50.656;7.568;2022-09-03T21:47:58;14.60;1.00
5617;DHT22;2830;50.656;7.568;2022-09-03T21:50:33;14.60;1.00
5617;DHT22;2830;50.656;7.568;2022-09-03T21:53:24;14.60;1.00
5617;DHT22;2830;50.656;7.568;2022-09-03T22:01:11;14.50;1.00
5617;DHT22;2830;50.656;7.568;2022-09-03T22:03:55;14.40;1.00
5617;DHT22;2830;50.656;7.568;2022-09-03T22:06:32;14.40;1.00
5617;DHT22;2830;50.656;7.568;2022-09-03T22:09:15;14.30;1.00
5617;DHT22;2830;50.656;7.568;2022-09-03T22:14:45;14.10;1.00
5617;DHT22;2830;50.656;7.568;2022-09-03T22:20:13;14.30;1.00
5617;DHT22;2830;50.656;7.568;2022-09-03T22:23:03;14.30;1.00
5617;DHT22;2830;50.656;7.568;2022-09-03T22:26:00;14.40;1.00
5617;DHT22;2830;50.656;7.568;2022-09-03T22:28:37;14.40;1.00
5617;DHT22;2830;50.656;7.568;2022-09-03T22:31:19;14.40;1.00
5617;DHT22;2830;50.656;7.568;2022-09-03T22:34:18;14.50;1.00
5617;DHT22;2830;50.656;7.568;2022-09-03T22:36:52;14.60;1.00
5617;DHT22;2830;50.656;7.568;2022-09-03T22:39:36;14.60;1.00
5617;DHT22;2830;50.656;7.568;2022-09-03T22:44:55;14.60;1.00
5617;DHT22;2830;50.656;7.568;2022-09-03T22:47:31;14.60;1.00